createdAt,value
2016-06-04T00:00:24.495Z,85.28
2016-06-04T00:01:24.435Z,85.28
2016-06-04T00:02:27.391Z,85.1
2016-06-04T00:03:24.346Z,84.81
2016-06-04T00:04:24.303Z,85
2016-06-04T00:05:24.258Z,84.81
2016-06-04T00:06:24.199Z,84.91
2016-06-04T00:07:24.170Z,84.91
2016-06-04T00:08:24.110Z,84.91
2016-06-04T00:09:27.066Z,84.91
2016-06-04T00:10:27.022Z,85
2016-06-04T00:11:24.618Z,85.1
2016-06-04T00:12:26.917Z,84.91
2016-06-04T00:13:26.874Z,84.91
2016-06-04T00:14:23.829Z,85
2016-06-04T00:15:26.785Z,84.91
2016-06-04T00:16:23.740Z,85
2016-06-04T00:17:23.900Z,84.91
2016-06-04T00:18:23.653Z,84.71
2016-06-04T00:19:23.608Z,85
2016-06-04T00:20:26.752Z,85.19
2016-06-04T00:21:23.520Z,85.48
2016-06-04T00:22:23.460Z,85.58
2016-06-04T00:23:23.400Z,85.96
2016-06-04T00:24:26.372Z,85.77
2016-06-04T00:25:23.312Z,85.58
2016-06-04T00:26:23.800Z,85.48
2016-06-04T00:27:23.239Z,85.77
2016-06-04T00:28:26.179Z,85.58
2016-06-04T00:29:23.151Z,85.58
2016-06-04T00:30:23.091Z,85.67
2016-06-04T00:31:26.063Z,85.77
2016-06-04T00:32:26.002Z,85.48
2016-06-04T00:33:23.458Z,85.77
2016-06-04T00:34:25.914Z,85.38
2016-06-04T00:35:22.886Z,85.58
2016-06-04T00:36:22.872Z,85.58
2016-06-04T00:37:25.782Z,85.48
2016-06-04T00:38:22.738Z,85.58
2016-06-04T00:39:22.522Z,85.77
2016-06-04T00:40:23.149Z,85.28
2016-06-04T00:41:22.652Z,85.77
2016-06-04T00:42:22.749Z,85.58
2016-06-04T00:43:22.626Z,85.86
2016-06-04T00:44:22.769Z,85.77
2016-06-04T00:45:22.412Z,85.77
2016-06-04T00:46:22.354Z,85.67
2016-06-04T00:47:22.621Z,85.67
2016-06-04T00:48:25.280Z,85.67
2016-06-04T00:49:25.220Z,85.58
2016-06-04T00:50:22.160Z,85.67
2016-06-04T00:51:22.117Z,85.67
2016-06-04T00:52:22.072Z,85.96
2016-06-04T00:53:22.060Z,85.77
2016-06-04T00:54:21.984Z,85.67
2016-06-04T00:55:21.986Z,85.77
2016-06-04T00:56:25.098Z,86.54
2016-06-04T00:57:21.836Z,86.25
2016-06-04T00:58:21.823Z,86.34
2016-06-04T00:59:24.978Z,86.34
2016-06-04T01:00:21.812Z,86.34
2016-06-04T01:01:21.737Z,86.34
2016-06-04T01:02:21.727Z,86.4
2016-06-04T01:03:24.716Z,86.54
2016-06-04T01:04:21.932Z,86.3
2016-06-04T01:05:21.853Z,85.77
2016-06-04T01:06:24.618Z,85.77
2016-06-04T01:07:21.585Z,85.96
2016-06-04T01:08:21.538Z,85.67
2016-06-04T01:09:24.518Z,85.96
2016-06-04T01:10:30.712Z,86.15
2016-06-04T01:11:21.813Z,85.48
2016-06-04T01:12:21.882Z,85.77
2016-06-04T01:13:21.342Z,85.67
2016-06-04T01:14:21.317Z,85.86
2016-06-04T01:15:27.462Z,85.96
2016-06-04T01:16:24.231Z,85.77
2016-06-04T01:17:21.157Z,85.58
2016-06-04T01:18:24.115Z,85.86
2016-06-04T01:19:27.103Z,85.58
2016-06-04T01:20:21.043Z,85.92
2016-06-04T01:21:21.000Z,85.72
2016-06-04T01:22:20.941Z,85.92
2016-06-04T01:23:20.881Z,85.82
2016-06-04T01:24:20.838Z,85.72
2016-06-04T01:25:23.825Z,85.92
2016-06-04T01:26:20.937Z,85.92
2016-06-04T01:27:20.690Z,85.72
2016-06-04T01:28:20.646Z,85.72
2016-06-04T01:29:20.821Z,85.82
2016-06-04T01:30:20.559Z,85.82
2016-06-04T01:31:20.577Z,85.53
2016-06-04T01:32:20.470Z,85.82
2016-06-04T01:33:20.442Z,85.72
2016-06-04T01:34:20.381Z,85.92
2016-06-04T01:35:23.541Z,85.72
2016-06-04T01:36:23.278Z,85.92
2016-06-04T01:37:20.296Z,85.92
2016-06-04T01:38:20.190Z,85.92
2016-06-04T01:39:20.130Z,85.53
2016-06-04T01:40:20.101Z,85.72
2016-06-04T01:41:20.073Z,85.63
2016-06-04T01:42:20.028Z,85.63
2016-06-04T01:43:22.969Z,85.53
2016-06-04T01:44:22.940Z,85.53
2016-06-04T01:45:22.911Z,85.58
2016-06-04T01:46:28.820Z,85.63
2016-06-04T01:47:22.870Z,85.44
2016-06-04T01:48:22.733Z,85.63
2016-06-04T01:49:19.672Z,86.11
2016-06-04T01:50:19.941Z,85.63
2016-06-04T01:51:19.583Z,85.63
2016-06-04T01:52:19.524Z,85.92
2016-06-04T01:53:19.480Z,86.11
2016-06-04T01:54:19.638Z,86.11
2016-06-04T01:55:19.391Z,86.4
2016-06-04T01:56:20.176Z,86.3
2016-06-04T01:57:19.804Z,86.3
2016-06-04T01:58:22.275Z,86.11
2016-06-04T01:59:19.230Z,86.49
2016-06-04T02:00:19.170Z,86.68
2016-06-04T02:01:19.111Z,86.49
2016-06-04T02:02:25.098Z,86.4
2016-06-04T02:03:19.022Z,86.88
2016-06-04T02:04:22.088Z,87.07
2016-06-04T02:05:18.981Z,87.26
2016-06-04T02:06:21.889Z,86.88
2016-06-04T02:07:19.159Z,86.68
2016-06-04T02:08:18.786Z,87.16
2016-06-04T02:09:24.772Z,87.45
2016-06-04T02:10:21.698Z,87.55
2016-06-04T02:11:18.670Z,87.55
2016-06-04T02:12:27.593Z,87.35
2016-06-04T02:13:18.550Z,87.45
2016-06-04T02:14:18.349Z,87.45
2016-06-04T02:15:21.461Z,87.45
2016-06-04T02:16:21.416Z,87.55
2016-06-04T02:17:18.372Z,87.45
2016-06-04T02:18:18.328Z,87.35
2016-06-04T02:19:18.284Z,87.16
2016-06-04T02:20:18.224Z,87.55
2016-06-04T02:21:18.180Z,87.55
2016-06-04T02:22:18.339Z,87.26
2016-06-04T02:23:18.108Z,87.45
2016-06-04T02:24:18.064Z,87.45
2016-06-04T02:25:21.175Z,87.84
2016-06-04T02:26:21.006Z,87.84
2016-06-04T02:27:17.899Z,87.84
2016-06-04T02:28:21.074Z,87.74
2016-06-04T02:29:17.810Z,87.64
2016-06-04T02:30:17.767Z,87.74
2016-06-04T02:31:17.707Z,87.64
2016-06-04T02:32:20.679Z,87.64
2016-06-04T02:33:17.634Z,87.55
2016-06-04T02:34:17.418Z,87.64
2016-06-04T02:35:17.531Z,87.84
2016-06-04T02:36:17.471Z,87.93
2016-06-04T02:37:17.426Z,87.93
2016-06-04T02:38:20.381Z,88.12
2016-06-04T02:39:17.370Z,87.84
2016-06-04T02:40:23.294Z,87.45
2016-06-04T02:41:18.218Z,87.45
2016-06-04T02:42:17.409Z,87.93
2016-06-04T02:43:17.161Z,87.84
2016-06-04T02:44:17.101Z,88.12
2016-06-04T02:45:17.058Z,87.74
2016-06-04T02:46:23.013Z,87.55
2016-06-04T02:47:19.969Z,87.74
2016-06-04T02:48:16.924Z,87.55
2016-06-04T02:49:19.880Z,87.64
2016-06-04T02:50:19.836Z,87.84
2016-06-04T02:51:19.792Z,88.31
2016-06-04T02:52:16.747Z,88.31
2016-06-04T02:53:16.891Z,88.12
2016-06-04T02:54:22.660Z,88.02
2016-06-04T02:55:16.600Z,88.31
2016-06-04T02:56:22.805Z,87.84
2016-06-04T02:57:19.496Z,87.93
2016-06-04T02:58:19.451Z,88.31
2016-06-04T02:59:16.407Z,88.12
2016-06-04T03:00:16.410Z,88.31
2016-06-04T03:01:16.304Z,87.93
2016-06-04T03:02:16.259Z,88.02
2016-06-04T03:03:25.246Z,87.93
2016-06-04T03:04:16.171Z,87.64
2016-06-04T03:05:16.127Z,88.12
2016-06-04T03:06:16.114Z,88.17
2016-06-04T03:07:16.054Z,87.49
2016-06-04T03:08:15.979Z,87.93
2016-06-04T03:09:15.934Z,88.02
2016-06-04T03:10:15.890Z,87.74
2016-06-04T03:11:16.580Z,88.31
2016-06-04T03:12:15.786Z,88.22
2016-06-04T03:13:15.586Z,88.22
2016-06-04T03:14:15.698Z,88.02
2016-06-04T03:15:15.731Z,88.51
2016-06-04T03:16:18.609Z,88.22
2016-06-04T03:17:15.581Z,88.79
2016-06-04T03:18:15.521Z,88.7
2016-06-04T03:19:15.478Z,88.7
2016-06-04T03:20:15.433Z,89.18
2016-06-04T03:21:18.388Z,88.7
2016-06-04T03:22:15.345Z,89.08
2016-06-04T03:23:18.316Z,89.08
2016-06-04T03:24:18.241Z,89.18
2016-06-04T03:25:15.196Z,89.08
2016-06-04T03:26:15.496Z,88.98
2016-06-04T03:27:18.311Z,88.79
2016-06-04T03:28:15.064Z,88.7
2016-06-04T03:29:15.019Z,88.79
2016-06-04T03:30:14.960Z,88.6
2016-06-04T03:31:14.916Z,88.98
2016-06-04T03:32:15.278Z,88.89
2016-06-04T03:33:14.826Z,89.27
2016-06-04T03:34:17.783Z,89.18
2016-06-04T03:35:14.723Z,89.08
2016-06-04T03:36:17.710Z,89.65
2016-06-04T03:37:14.634Z,89.56
2016-06-04T03:38:14.793Z,89.56
2016-06-04T03:39:14.749Z,89.56
2016-06-04T03:40:14.502Z,89.94
2016-06-04T03:41:15.208Z,89.75
2016-06-04T03:42:14.414Z,89.85
2016-06-04T03:43:14.353Z,89.85
2016-06-04T03:44:14.309Z,89.75
2016-06-04T03:45:14.265Z,89.56
2016-06-04T03:46:14.237Z,89.75
2016-06-04T03:47:14.178Z,90.42
2016-06-04T03:48:14.117Z,89.65
2016-06-04T03:49:14.276Z,89.56
2016-06-04T03:50:14.028Z,89.56
2016-06-04T03:51:17.000Z,89.56
2016-06-04T03:52:13.940Z,89.65
2016-06-04T03:53:13.881Z,89.51
2016-06-04T03:54:13.836Z,90.04
2016-06-04T03:55:13.824Z,90.14
2016-06-04T03:56:13.638Z,90.18
2016-06-04T03:57:13.719Z,90.33
2016-06-04T03:58:13.675Z,90.23
2016-06-04T03:59:13.616Z,90.33
2016-06-04T04:00:13.555Z,90.42
2016-06-04T04:01:13.512Z,90.47
2016-06-04T04:02:13.671Z,90.61
2016-06-04T04:03:13.424Z,90.23
2016-06-04T04:04:13.363Z,90.28
2016-06-04T04:05:13.319Z,90.28
2016-06-04T04:06:13.307Z,90.28
2016-06-04T04:07:13.231Z,90.28
2016-06-04T04:08:16.202Z,90.28
2016-06-04T04:09:13.345Z,90.18
2016-06-04T04:10:13.082Z,90.47
2016-06-04T04:11:13.085Z,90.66
2016-06-04T04:12:12.995Z,90.66
2016-06-04T04:13:12.965Z,90.47
2016-06-04T04:14:12.906Z,90.18
2016-06-04T04:15:15.878Z,90.37
2016-06-04T04:16:12.817Z,90.08
2016-06-04T04:17:12.789Z,90.18
2016-06-04T04:18:12.729Z,90.56
2016-06-04T04:19:12.685Z,90.47
2016-06-04T04:20:21.656Z,90.47
2016-06-04T04:21:12.597Z,90.47
2016-06-04T04:22:12.537Z,90.37
2016-06-04T04:23:12.492Z,90.47
2016-06-04T04:24:12.433Z,90.28
2016-06-04T04:25:12.420Z,90.28
2016-06-04T04:26:12.361Z,90.37
2016-06-04T04:27:15.300Z,90.66
2016-06-04T04:28:12.272Z,90.47
2016-06-04T04:29:12.275Z,90.47
2016-06-04T04:30:15.183Z,90.47
2016-06-04T04:31:12.529Z,90.66
2016-06-04T04:32:12.063Z,90.56
2016-06-04T04:33:12.035Z,90.75
2016-06-04T04:34:11.976Z,91.14
2016-06-04T04:35:11.931Z,90.95
2016-06-04T04:36:11.887Z,91.05
2016-06-04T04:37:11.859Z,90.66
2016-06-04T04:38:11.814Z,90.95
2016-06-04T04:39:11.755Z,90.85
2016-06-04T04:40:11.710Z,90.95
2016-06-04T04:41:11.526Z,91.24
2016-06-04T04:42:11.622Z,91.42
2016-06-04T04:43:11.625Z,91.33
2016-06-04T04:44:11.581Z,91.52
2016-06-04T04:45:11.474Z,91.33
2016-06-04T04:46:11.414Z,91.14
2016-06-04T04:47:11.386Z,91.33
2016-06-04T04:48:11.341Z,91.52
2016-06-04T04:49:11.281Z,91.14
2016-06-04T04:50:14.253Z,91.14
2016-06-04T04:51:14.412Z,91.24
2016-06-04T04:52:11.367Z,91.42
2016-06-04T04:53:11.089Z,91.24
2016-06-04T04:54:11.045Z,91.24
2016-06-04T04:55:14.017Z,91.14
2016-06-04T04:56:10.972Z,91.42
2016-06-04T04:57:10.943Z,91.33
2016-06-04T04:58:10.884Z,91.52
2016-06-04T04:59:14.027Z,91.52
2016-06-04T05:00:10.779Z,91.42
2016-06-04T05:01:10.735Z,91.52
2016-06-04T05:02:10.879Z,91.62
2016-06-04T05:03:13.647Z,91.42
2016-06-04T05:04:10.588Z,91.62
2016-06-04T05:05:13.574Z,91.72
2016-06-04T05:06:10.483Z,91.62
2016-06-04T05:07:13.455Z,91.52
2016-06-04T05:08:13.410Z,91.33
2016-06-04T05:09:10.460Z,91.52
2016-06-04T05:10:13.323Z,91.33
2016-06-04T05:11:10.465Z,91.62
2016-06-04T05:12:10.203Z,91.42
2016-06-04T05:13:13.440Z,91.62
2016-06-04T05:14:10.162Z,92.19
2016-06-04T05:15:10.101Z,92
2016-06-04T05:16:13.041Z,92
2016-06-04T05:17:12.998Z,92
2016-06-04T05:18:09.953Z,91.91
2016-06-04T05:19:10.378Z,91.91
2016-06-04T05:20:09.834Z,91.91
2016-06-04T05:21:09.806Z,92
2016-06-04T05:22:09.761Z,92
2016-06-04T05:23:09.700Z,91.81
2016-06-04T05:24:09.673Z,91.72
2016-06-04T05:25:09.613Z,92
2016-06-04T05:26:09.897Z,92
2016-06-04T05:27:09.524Z,92
2016-06-04T05:28:12.480Z,92.1
2016-06-04T05:29:09.436Z,92
2016-06-04T05:30:09.579Z,92
2016-06-04T05:31:09.347Z,92
2016-06-04T05:32:09.288Z,92
2016-06-04T05:33:09.244Z,92
2016-06-04T05:34:09.215Z,92.19
2016-06-04T05:35:09.140Z,92
2016-06-04T05:36:09.095Z,92.19
2016-06-04T05:37:09.271Z,92
2016-06-04T05:38:09.429Z,92.1
2016-06-04T05:39:14.979Z,92
2016-06-04T05:40:08.919Z,92.19
2016-06-04T05:41:08.921Z,92
2016-06-04T05:42:08.830Z,92.1
2016-06-04T05:43:08.786Z,92.1
2016-06-04T05:44:08.757Z,92
2016-06-04T05:45:08.870Z,92
2016-06-04T05:46:08.637Z,92.19
2016-06-04T05:47:08.578Z,91.91
2016-06-04T05:48:08.550Z,91.91
2016-06-04T05:49:08.693Z,92
2016-06-04T05:50:11.461Z,92
2016-06-04T05:51:08.417Z,91.91
2016-06-04T05:52:08.561Z,92.19
2016-06-04T05:53:11.313Z,92
2016-06-04T05:54:11.269Z,92
2016-06-04T05:55:08.240Z,92
2016-06-04T05:56:11.211Z,92.19
2016-06-04T05:57:08.120Z,92.1
2016-06-04T05:58:08.311Z,92
2016-06-04T05:59:08.033Z,91.72
2016-06-04T06:00:08.066Z,91.91
2016-06-04T06:01:07.944Z,91.81
2016-06-04T06:02:07.915Z,91.91
2016-06-04T06:03:07.856Z,91.52
2016-06-04T06:04:10.827Z,91.33
2016-06-04T06:05:07.767Z,91.66
2016-06-04T06:06:07.926Z,91.47
2016-06-04T06:07:10.679Z,91.42
2016-06-04T06:08:07.618Z,91.57
2016-06-04T06:09:07.590Z,90.99
2016-06-04T06:10:07.530Z,91.38
2016-06-04T06:11:10.533Z,91.47
2016-06-04T06:12:07.442Z,91.42
2016-06-04T06:13:07.398Z,91.09
2016-06-04T06:14:07.354Z,91.57
2016-06-04T06:15:07.310Z,91.47
2016-06-04T06:16:07.250Z,91.38
2016-06-04T06:17:07.253Z,91.57
2016-06-04T06:18:07.177Z,91.38
2016-06-04T06:19:07.117Z,90.7
2016-06-04T06:20:07.073Z,90.9
2016-06-04T06:21:07.029Z,91.09
2016-06-04T06:22:10.000Z,90.61
2016-06-04T06:23:10.144Z,90.8
2016-06-04T06:24:10.083Z,90.61
2016-06-04T06:25:09.867Z,90.42
2016-06-04T06:26:06.809Z,90.61
2016-06-04T06:27:06.764Z,90.52
2016-06-04T06:28:09.719Z,90.22
2016-06-04T06:29:06.644Z,90.32
2016-06-04T06:30:06.600Z,90.32
2016-06-04T06:31:06.571Z,90.13
2016-06-04T06:32:12.527Z,89.94
2016-06-04T06:33:09.483Z,90.13
2016-06-04T06:34:09.642Z,90.03
2016-06-04T06:35:06.379Z,90.42
2016-06-04T06:36:12.350Z,90.22
2016-06-04T06:37:18.291Z,90.13
2016-06-04T06:38:09.246Z,90.32
2016-06-04T06:39:09.202Z,90.52
2016-06-04T06:40:06.174Z,90.61
2016-06-04T06:41:09.863Z,90.42
2016-06-04T06:42:06.054Z,90.52
2016-06-04T06:43:06.026Z,90.42
2016-06-04T06:44:05.965Z,90.42
2016-06-04T06:45:06.031Z,90.7
2016-06-04T06:46:05.862Z,90.8
2016-06-04T06:47:05.849Z,90.8
2016-06-04T06:48:05.789Z,90.99
2016-06-04T06:49:08.760Z,91.09
2016-06-04T06:50:05.700Z,90.99
2016-06-04T06:51:05.641Z,91.19
2016-06-04T06:52:05.597Z,91.19
2016-06-04T06:53:05.553Z,90.99
2016-06-04T06:54:09.648Z,90.8
2016-06-04T06:55:08.464Z,91.19
2016-06-04T06:56:05.420Z,91.28
2016-06-04T06:57:05.235Z,91.28
2016-06-04T06:58:05.331Z,91.57
2016-06-04T06:59:05.303Z,90.8
2016-06-04T07:00:05.244Z,91.38
2016-06-04T07:01:05.184Z,91.52
2016-06-04T07:02:05.155Z,91.28
2016-06-04T07:03:05.111Z,91.66
2016-06-04T07:04:05.066Z,91.28
2016-06-04T07:05:05.022Z,91.19
2016-06-04T07:06:04.963Z,90.9
2016-06-04T07:07:05.106Z,90.32
2016-06-04T07:08:07.874Z,90.37
2016-06-04T07:09:05.032Z,89.98
2016-06-04T07:10:07.785Z,89.6
2016-06-04T07:11:07.741Z,89.31
2016-06-04T07:12:05.400Z,88.73
2016-06-04T07:13:04.637Z,89.12
2016-06-04T07:14:04.610Z,89.12
2016-06-04T07:15:04.596Z,88.87
2016-06-04T07:16:04.692Z,88.97
2016-06-04T07:17:07.492Z,88.68
2016-06-04T07:18:04.417Z,88.78
2016-06-04T07:19:04.388Z,88.97
2016-06-04T07:20:07.328Z,89.16
2016-06-04T07:21:10.300Z,88.39
2016-06-04T07:22:04.240Z,88.59
2016-06-04T07:23:07.196Z,88.64
2016-06-04T07:24:04.167Z,88.54
2016-06-04T07:25:04.106Z,89.02
2016-06-04T07:26:04.079Z,88.93
2016-06-04T07:27:04.081Z,88.45
2016-06-04T07:28:03.959Z,89.12
2016-06-04T07:29:03.931Z,88.54
2016-06-04T07:30:06.886Z,88.45
2016-06-04T07:31:03.842Z,88.83
2016-06-04T07:32:03.782Z,88.45
2016-06-04T07:33:03.738Z,88.64
2016-06-04T07:34:03.741Z,88.64
2016-06-04T07:35:04.181Z,88.93
2016-06-04T07:36:06.605Z,88.93
2016-06-04T07:37:03.546Z,88.83
2016-06-04T07:38:12.533Z,89.12
2016-06-04T07:39:03.458Z,88.35
2016-06-04T07:40:06.429Z,88.35
2016-06-04T07:41:03.885Z,88.54
2016-06-04T07:42:03.169Z,88.45
2016-06-04T07:43:06.297Z,88.64
2016-06-04T07:44:03.237Z,88.06
2016-06-04T07:45:03.192Z,88.06
2016-06-04T07:46:03.148Z,88.16
2016-06-04T07:47:03.120Z,88.06
2016-06-04T07:48:06.060Z,88.16
2016-06-04T07:49:06.015Z,88.06
2016-06-04T07:50:02.971Z,88.06
2016-06-04T07:51:02.912Z,87.68
2016-06-04T07:52:02.867Z,87.39
2016-06-04T07:53:02.839Z,87.77
2016-06-04T07:54:02.778Z,88.16
2016-06-04T07:55:03.142Z,87.58
2016-06-04T07:56:02.581Z,87.43
2016-06-04T07:57:02.725Z,87.15
2016-06-04T07:58:03.009Z,87.15
2016-06-04T07:59:05.573Z,87.24
2016-06-04T08:00:11.530Z,86.76
2016-06-04T08:01:02.486Z,86.76
2016-06-04T08:02:05.425Z,86.66
2016-06-04T08:03:02.569Z,86.28
2016-06-04T08:04:02.322Z,86.47
2016-06-04T08:05:02.277Z,85.8
2016-06-04T08:06:02.249Z,85.65
2016-06-04T08:07:02.236Z,85.27
2016-06-04T08:08:05.161Z,85.46
2016-06-04T08:09:05.132Z,85.07
2016-06-04T08:10:05.072Z,85.07
2016-06-04T08:11:01.996Z,84.63
2016-06-04T08:12:01.968Z,84.34
2016-06-04T08:13:01.768Z,84.34
2016-06-04T08:14:01.895Z,84.63
2016-06-04T08:15:01.836Z,84.5
2016-06-04T08:16:01.776Z,84.21
2016-06-04T08:17:04.747Z,84.3
2016-06-04T08:18:01.703Z,84.4
2016-06-04T08:19:01.659Z,84.5
2016-06-04T08:20:02.005Z,84.21
2016-06-04T08:21:01.570Z,84.59
2016-06-04T08:22:01.542Z,84.5
2016-06-04T08:23:01.481Z,84.21
2016-06-04T08:24:04.454Z,84.4
2016-06-04T08:25:01.378Z,84.59
2016-06-04T08:26:04.678Z,84.4
2016-06-04T08:27:04.321Z,84.59
2016-06-04T08:28:04.308Z,84.3
2016-06-04T08:29:01.201Z,84.5
2016-06-04T08:30:01.156Z,84.3
2016-06-04T08:31:01.113Z,84.4
2016-06-04T08:32:01.069Z,84.5
2016-06-04T08:33:01.022Z,84.3
2016-06-04T08:34:00.977Z,83.73
2016-06-04T08:35:00.934Z,84.21
2016-06-04T08:36:00.905Z,83.53
2016-06-04T08:37:00.844Z,83.48
2016-06-04T08:38:00.863Z,82.23
2016-06-04T08:39:11.977Z,81.84
2016-06-04T08:40:00.712Z,81.65
2016-06-04T08:41:03.671Z,81.84
2016-06-04T08:42:00.624Z,81.4
2016-06-04T08:43:00.579Z,81.6
2016-06-04T08:44:00.535Z,81.21
2016-06-04T08:45:00.492Z,81.02
2016-06-04T08:46:00.463Z,80.73
2016-06-04T08:47:03.421Z,80.63
2016-06-04T08:48:00.359Z,80.73
2016-06-04T08:49:00.315Z,81.02
2016-06-04T08:50:00.396Z,80.63
2016-06-04T08:51:00.460Z,80.63
2016-06-04T08:52:03.185Z,80.92
2016-06-04T08:53:03.203Z,80.44
2016-06-04T08:54:00.093Z,80.38
2016-06-04T08:55:03.068Z,80
2016-06-04T08:55:59.990Z,79.33
2016-06-04T08:57:00.039Z,79.23
2016-06-04T08:57:59.995Z,79.23
2016-06-04T08:59:00.311Z,79.23
2016-06-04T08:59:59.828Z,78.65
2016-06-04T09:00:59.769Z,78.94
2016-06-04T09:01:59.740Z,78.75
2016-06-04T09:02:59.900Z,78.46
2016-06-04T09:04:02.702Z,78.17
2016-06-04T09:04:59.608Z,78.11
2016-06-04T09:06:02.629Z,78.02
2016-06-04T09:07:02.504Z,78.17
2016-06-04T09:07:59.491Z,78.17
2016-06-04T09:09:02.463Z,77.69
2016-06-04T09:09:59.419Z,77.21
2016-06-04T09:10:59.327Z,77.69
2016-06-04T09:11:59.814Z,77.4
2016-06-04T09:12:59.489Z,77.59
2016-06-04T09:14:02.413Z,77.78
2016-06-04T09:14:59.182Z,77.78
2016-06-04T09:15:59.418Z,77.59
2016-06-04T09:16:59.078Z,77.59
2016-06-04T09:18:02.049Z,77.5
2016-06-04T09:19:02.192Z,77.5
2016-06-04T09:20:01.930Z,77.4
2016-06-04T09:20:58.885Z,77.21
2016-06-04T09:21:58.857Z,77.4
2016-06-04T09:22:58.813Z,77.01
2016-06-04T09:24:04.787Z,77.4
2016-06-04T09:24:59.209Z,77.31
2016-06-04T09:25:58.680Z,77.59
2016-06-04T09:26:58.823Z,77.5
2016-06-04T09:28:01.795Z,77.5
2016-06-04T09:28:58.547Z,78.08
2016-06-04T09:29:58.582Z,77.88
2016-06-04T09:31:01.459Z,77.88
2016-06-04T09:31:58.274Z,78.08
2016-06-04T09:32:58.605Z,77.98
2016-06-04T09:33:58.374Z,77.4
2016-06-04T09:34:58.267Z,77.5
2016-06-04T09:36:10.241Z,77.01
2016-06-04T09:37:01.397Z,77.21
2016-06-04T09:38:01.134Z,76.96
2016-06-04T09:39:01.090Z,76.76
2016-06-04T09:40:01.077Z,76.67
2016-06-04T09:41:01.017Z,75.99
2016-06-04T09:41:57.958Z,76.38
2016-06-04T09:43:03.976Z,76.09
2016-06-04T09:43:58.432Z,76.57
2016-06-04T09:44:57.825Z,76.28
2016-06-04T09:45:57.780Z,76.03
2016-06-04T09:47:00.752Z,75.74
2016-06-04T09:48:00.693Z,75.84
2016-06-04T09:48:57.648Z,75.93
2016-06-04T09:49:57.619Z,75.93
2016-06-04T09:51:00.591Z,76.03
2016-06-04T09:51:57.516Z,75.65
2016-06-04T09:52:57.502Z,75.84
2016-06-04T09:54:00.442Z,75.74
2016-06-04T09:54:57.477Z,75.9
2016-06-04T09:55:57.542Z,75.8
2016-06-04T09:56:57.295Z,75.9
2016-06-04T09:57:57.250Z,76.13
2016-06-04T09:58:57.504Z,76.13
2016-06-04T09:59:57.178Z,76.51
2016-06-04T10:00:57.134Z,76.38
2016-06-04T10:01:56.933Z,76.28
2016-06-04T10:02:57.076Z,76.28
2016-06-04T10:04:00.001Z,76.67
2016-06-04T10:04:59.957Z,76.67
2016-06-04T10:05:56.929Z,76.57
2016-06-04T10:06:56.914Z,76.96
2016-06-04T10:07:56.897Z,76.96
2016-06-04T10:08:56.881Z,76.96
2016-06-04T10:09:59.864Z,76.76
2016-06-04T10:11:02.852Z,76.96
2016-06-04T10:12:00.021Z,76.67
2016-06-04T10:13:05.797Z,76.86
2016-06-04T10:13:56.750Z,76.09
2016-06-04T10:15:02.700Z,76.09
2016-06-04T10:15:56.662Z,75.84
2016-06-04T10:16:56.621Z,75.74
2016-06-04T10:17:59.595Z,75.16
2016-06-04T10:18:56.741Z,74.91
2016-06-04T10:19:56.717Z,74.72
2016-06-04T10:20:56.456Z,74.82
2016-06-04T10:21:59.445Z,74.14
2016-06-04T10:22:56.246Z,74.24
2016-06-04T10:23:59.359Z,74.72
2016-06-04T10:24:59.411Z,74.52
2016-06-04T10:25:56.289Z,74.43
2016-06-04T10:26:56.432Z,74.43
2016-06-04T10:27:56.171Z,75.2
2016-06-04T10:28:59.126Z,74.91
2016-06-04T10:29:56.083Z,75.2
2016-06-04T10:30:56.038Z,75.3
2016-06-04T10:31:58.994Z,75.1
2016-06-04T10:32:55.950Z,75.01
2016-06-04T10:33:58.906Z,74.91
2016-06-04T10:34:58.862Z,75.01
2016-06-04T10:35:55.833Z,75.01
2016-06-04T10:36:55.773Z,75.1
2016-06-04T10:37:55.745Z,75.3
2016-06-04T10:38:58.779Z,75.2
2016-06-04T10:40:01.657Z,74.62
2016-06-04T10:40:58.612Z,74.24
2016-06-04T10:41:55.553Z,74.52
2016-06-04T10:42:55.931Z,74.72
2016-06-04T10:43:55.465Z,74.62
2016-06-04T10:44:55.436Z,74.33
2016-06-04T10:45:55.392Z,74.24
2016-06-04T10:46:55.331Z,74.18
2016-06-04T10:47:55.320Z,73.31
2016-06-04T10:48:55.275Z,73.41
2016-06-04T10:49:55.230Z,72.83
2016-06-04T10:50:55.155Z,73.25
2016-06-04T10:51:55.142Z,72.67
2016-06-04T10:52:55.083Z,73.02
2016-06-04T10:53:58.038Z,72.48
2016-06-04T10:54:54.994Z,72
2016-06-04T10:55:57.965Z,71.51
2016-06-04T10:56:55.108Z,71.8
2016-06-04T10:57:54.877Z,72.19
2016-06-04T10:58:54.816Z,71.51
2016-06-04T10:59:54.977Z,71.22
2016-06-04T11:00:54.744Z,70.94
2016-06-04T11:01:54.716Z,70.74
2016-06-04T11:02:54.656Z,70.84
2016-06-04T11:03:54.613Z,70.29
2016-06-04T11:04:54.568Z,69.71
2016-06-04T11:05:54.524Z,69.42
2016-06-04T11:06:57.510Z,70
2016-06-04T11:07:54.451Z,70
2016-06-04T11:08:57.407Z,69.42
2016-06-04T11:09:54.346Z,69.42
2016-06-04T11:10:57.318Z,69.52
2016-06-04T11:12:00.304Z,69.42
2016-06-04T11:13:00.449Z,69.62
2016-06-04T11:13:57.717Z,69.9
2016-06-04T11:14:54.142Z,69.52
2016-06-04T11:15:54.113Z,69.81
2016-06-04T11:16:57.132Z,69.78
2016-06-04T11:17:54.025Z,70.16
2016-06-04T11:18:53.965Z,70.06
2016-06-04T11:19:53.937Z,70.36
2016-06-04T11:20:53.892Z,70.26
2016-06-04T11:21:53.848Z,70.06
2016-06-04T11:22:53.803Z,70.16
2016-06-04T11:23:56.759Z,70.54
2016-06-04T11:24:59.981Z,70.74
2016-06-04T11:25:56.687Z,70.61
2016-06-04T11:26:53.627Z,71
2016-06-04T11:27:53.598Z,71
2016-06-04T11:28:53.539Z,70.51
2016-06-04T11:29:53.495Z,70.45
2016-06-04T11:30:53.466Z,70.16
2016-06-04T11:31:56.422Z,69.78
2016-06-04T11:32:53.393Z,68.94
2016-06-04T11:33:53.333Z,68.94
2016-06-04T11:34:53.289Z,68.49
2016-06-04T11:35:56.402Z,67.82
2016-06-04T11:36:53.201Z,67.04
2016-06-04T11:37:53.171Z,67.24
2016-06-04T11:38:53.113Z,66.66
2016-06-04T11:39:53.115Z,66.69
2016-06-04T11:40:53.243Z,65.63
2016-06-04T11:41:59.026Z,65.17
2016-06-04T11:42:55.967Z,64.69
2016-06-04T11:43:58.937Z,64.21
2016-06-04T11:44:55.863Z,64.01
2016-06-04T11:45:55.771Z,63.73
2016-06-04T11:46:52.773Z,63.85
2016-06-04T11:47:55.824Z,63.66
2016-06-04T11:48:52.702Z,63.37
2016-06-04T11:49:52.657Z,63.37
2016-06-04T11:50:52.614Z,63.08
2016-06-04T11:51:55.757Z,63.95
2016-06-04T11:52:55.540Z,63.53
2016-06-04T11:53:52.481Z,63.63
2016-06-04T11:54:52.453Z,63.46
2016-06-04T11:55:52.408Z,63.82
2016-06-04T11:56:52.769Z,63.63
2016-06-04T11:57:52.320Z,63.73
2016-06-04T11:58:55.306Z,63.34
2016-06-04T11:59:58.247Z,62.69
2016-06-04T12:00:52.219Z,63.05
2016-06-04T12:01:55.189Z,63.18
2016-06-04T12:02:52.146Z,62.4
2016-06-04T12:03:52.069Z,62.3
2016-06-04T12:04:52.230Z,61.43
2016-06-04T12:05:51.997Z,61.15
2016-06-04T12:06:54.938Z,61.46
2016-06-04T12:07:51.893Z,61.36
2016-06-04T12:08:51.866Z,61.08
2016-06-04T12:09:51.836Z,61.27
2016-06-04T12:10:51.777Z,60.5
2016-06-04T12:11:51.748Z,60.4
2016-06-04T12:12:51.688Z,60.24
2016-06-04T12:13:51.660Z,59.56
2016-06-04T12:14:51.599Z,59.07
2016-06-04T12:15:51.571Z,59.46
2016-06-04T12:16:51.543Z,58.81
2016-06-04T12:17:51.498Z,59.1
2016-06-04T12:18:51.454Z,59
2016-06-04T12:19:51.410Z,58.91
2016-06-04T12:20:51.366Z,58.78
2016-06-04T12:21:54.337Z,59.1
2016-06-04T12:22:51.278Z,58.62
2016-06-04T12:23:54.233Z,57.75
2016-06-04T12:24:54.205Z,57.87
2016-06-04T12:25:51.176Z,57.39
2016-06-04T12:26:54.116Z,56.61
2016-06-04T12:27:51.292Z,56.9
2016-06-04T12:28:51.716Z,56.71
2016-06-04T12:29:51.000Z,56.23
2016-06-04T12:30:50.971Z,56.32
2016-06-04T12:31:54.020Z,56.61
2016-06-04T12:32:53.883Z,56.41
2016-06-04T12:33:53.854Z,56.13
2016-06-04T12:34:50.794Z,55.67
2016-06-04T12:35:50.750Z,55.57
2016-06-04T12:36:50.706Z,55.47
2016-06-04T12:37:50.693Z,55.28
2016-06-04T12:38:50.633Z,54.99
2016-06-04T12:39:53.589Z,55.38
2016-06-04T12:40:50.544Z,54.92
2016-06-04T12:41:50.501Z,55.02
2016-06-04T12:42:53.332Z,54.82
2016-06-04T12:43:50.443Z,54.63
2016-06-04T12:44:50.399Z,54.34
2016-06-04T12:45:50.354Z,54.34
2016-06-04T12:46:50.327Z,53.49
2016-06-04T12:47:53.470Z,53.59
2016-06-04T12:48:50.238Z,53.2
2016-06-04T12:49:50.193Z,52.94
2016-06-04T12:50:50.150Z,52.74
2016-06-04T12:51:53.121Z,52.06
2016-06-04T12:52:53.295Z,52.55
2016-06-04T12:53:50.033Z,52.55
2016-06-04T12:54:49.989Z,52.72
2016-06-04T12:55:49.929Z,53
2016-06-04T12:56:49.962Z,52.91
2016-06-04T12:57:52.887Z,52.81